sensor_id;sensor_type;location;lat;lon;timestamp;temperature;humidity
20803;DHT22;10562;-33.856;151.182;2024-01-30T00:01:18;25.30;99.90
20803;DHT22;10562;-33.856;151.182;2024-01-30T00:03:49;25.30;99.90
20803;DHT22;10562;-33.856;151.182;2024-01-30T00:06:21;25.30;99.90
20803;DHT22;10562;-33.856;151.182;2024-01-30T00:08:52;25.30;99.90
20803;DHT22;10562;-33.856;151.182;2024-01-30T00:11:24;25.30;99.90
20803;DHT22;10562;-33.856;151.182;2024-01-30T00:13:58;25.20;99.90
20803;DHT22;10562;-33.856;151.182;2024-01-30T00:16:29;25.10;99.90
20803;DHT22;10562;-33.856;151.182;2024-01-30T00:19:00;25.10;99.90
20803;DHT22;10562;-33.856;151.182;2024-01-30T00:21:31;25.10;99.90
20803;DHT22;10562;-33.856;151.182;2024-01-30T00:24:02;25.10;99.90
20803;DHT22;10562;-33.856;151.182;2024-01-30T00:26:34;25.20;99.90
20803;DHT22;10562;-33.856;151.182;2024-01-30T00:29:05;25.20;99.90
20803;DHT22;10562;-33.856;151.182;2024-01-30T00:31:36;25.20;99.90
20803;DHT22;10562;-33.856;151.182;2024-01-30T00:34:09;25.30;99.90
20803;DHT22;10562;-33.856;151.182;2024-01-30T00:36:40;25.50;99.90
20803;DHT22;10562;-33.856;151.182;2024-01-30T00:39:11;25.60;99.90
20803;DHT22;10562;-33.856;151.182;2024-01-30T00:41:45;25.80;99.90
20803;DHT22;10562;-33.856;151.182;2024-01-30T00:44:16;25.80;99.90
20803;DHT22;10562;-33.856;151.182;2024-01-30T00:46:46;26.00;99.90
20803;DHT22;10562;-33.856;151.182;2024-01-30T00:49:17;26.20;99.90
20803;DHT22;10562;-33.856;151.182;2024-01-30T00:51:48;26.70;99.90
20803;DHT22;10562;-33.856;151.182;2024-01-30T00:54:19;26.80;99.90
20803;DHT22;10562;-33.856;151.182;2024-01-30T00:56:57;26.90;99.90
20803;DHT22;10562;-33.856;151.182;2024-01-30T00:59:28;27.20;99.90
20803;DHT22;10562;-33.856;151.182;2024-01-30T01:01:59;27.20;99.90
20803;DHT22;10562;-33.856;151.182;2024-01-30T01:04:30;27.40;99.90
20803;DHT22;10562;-33.856;151.182;2024-01-30T01:07:01;27.50;99.90
20803;DHT22;10562;-33.856;151.182;2024-01-30T01:09:31;27.40;99.90
20803;DHT22;10562;-33.856;151.182;2024-01-30T01:12:04;27.30;99.90
20803;DHT22;10562;-33.856;151.182;2024-01-30T01:14:35;27.20;99.90
20803;DHT22;10562;-33.856;151.182;2024-01-30T01:17:06;27.20;99.90
20803;DHT22;10562;-33.856;151.182;2024-01-30T01:19:37;27.10;99.90
20803;DHT22;10562;-33.856;151.182;2024-01-30T01:22:07;27.20;99.90
20803;DHT22;10562;-33.856;151.182;2024-01-30T01:24:38;27.20;99.90
20803;DHT22;10562;-33.856;151.182;2024-01-30T01:27:11;27.30;99.90
20803;DHT22;10562;-33.856;151.182;2024-01-30T01:29:41;27.40;99.90
20803;DHT22;10562;-33.856;151.182;2024-01-30T01:32:13;27.50;99.90
20803;DHT22;10562;-33.856;151.182;2024-01-30T01:34:44;27.60;99.90
20803;DHT22;10562;-33.856;151.182;2024-01-30T01:37:14;27.70;99.90
20803;DHT22;10562;-33.856;151.182;2024-01-30T01:39:45;27.60;99.90
20803;DHT22;10562;-33.856;151.182;2024-01-30T01:42:18;27.60;99.90
20803;DHT22;10562;-33.856;151.182;2024-01-30T01:44:50;27.60;99.90
20803;DHT22;10562;-33.856;151.182;2024-01-30T01:47:21;27.70;99.90
20803;DHT22;10562;-33.856;151.182;2024-01-30T01:49:52;27.90;99.90
20803;DHT22;10562;-33.856;151.182;2024-01-30T01:52:22;28.00;99.90
20803;DHT22;10562;-33.856;151.182;2024-01-30T01:54:53;28.20;99.90
20803;DHT22;10562;-33.856;151.182;2024-01-30T01:57:26;28.40;99.90
20803;DHT22;10562;-33.856;151.182;2024-01-30T01:59:57;28.50;99.90
20803;DHT22;10562;-33.856;151.182;2024-01-30T02:02:30;28.60;99.90
20803;DHT22;10562;-33.856;151.182;2024-01-30T02:05:03;28.60;99.90
20803;DHT22;10562;-33.856;151.182;2024-01-30T02:07:34;28.50;99.90
20803;DHT22;10562;-33.856;151.182;2024-01-30T02:10:05;28.10;99.90
20803;DHT22;10562;-33.856;151.182;2024-01-30T02:12:40;27.90;99.90
20803;DHT22;10562;-33.856;151.182;2024-01-30T02:15:15;27.70;99.90
20803;DHT22;10562;-33.856;151.182;2024-01-30T02:17:46;27.50;99.90
20803;DHT22;10562;-33.856;151.182;2024-01-30T02:20:17;27.40;99.90
20803;DHT22;10562;-33.856;151.182;2024-01-30T02:22:50;27.30;99.90
20803;DHT22;10562;-33.856;151.182;2024-01-30T02:25:30;27.40;99.90
20803;DHT22;10562;-33.856;151.182;2024-01-30T02:28:01;27.40;99.90
20803;DHT22;10562;-33.856;151.182;2024-01-30T02:30:31;27.60;99.90
20803;DHT22;10562;-33.856;151.182;2024-01-30T02:33:02;27.60;99.90
20803;DHT22;10562;-33.856;151.182;2024-01-30T02:35:34;27.80;99.90
20803;DHT22;10562;-33.856;151.182;2024-01-30T02:38:07;28.10;99.90
20803;DHT22;10562;-33.856;151.182;2024-01-30T02:40:37;28.20;99.90
20803;DHT22;10562;-33.856;151.182;2024-01-30T02:43:08;28.40;99.90
20803;DHT22;10562;-33.856;151.182;2024-01-30T02:45:39;28.30;99.90
20803;DHT22;10562;-33.856;151.182;2024-01-30T02:48:10;28.30;99.90
20803;DHT22;10562;-33.856;151.182;2024-01-30T02:50:40;28.50;99.90
20803;DHT22;10562;-33.856;151.182;2024-01-30T02:53:13;28.60;99.90
20803;DHT22;10562;-33.856;151.182;2024-01-30T02:55:44;28.50;99.90
20803;DHT22;10562;-33.856;151.182;2024-01-30T02:58:14;28.40;99.90
20803;DHT22;10562;-33.856;151.182;2024-01-30T03:00:45;28.40;99.90
20803;DHT22;10562;-33.856;151.182;2024-01-30T03:03:16;28.60;99.90
20803;DHT22;10562;-33.856;151.182;2024-01-30T03:05:47;28.70;99.90
20803;DHT22;10562;-33.856;151.182;2024-01-30T03:08:19;28.60;99.90
20803;DHT22;10562;-33.856;151.182;2024-01-30T03:10:51;28.60;99.90
20803;DHT22;10562;-33.856;151.182;2024-01-30T03:13:21;28.40;99.90
20803;DHT22;10562;-33.856;151.182;2024-01-30T03:15:53;28.40;99.90
20803;DHT22;10562;-33.856;151.182;2024-01-30T03:18:23;28.30;99.90
20803;DHT22;10562;-33.856;151.182;2024-01-30T03:20:54;28.50;99.90
20803;DHT22;10562;-33.856;151.182;2024-01-30T03:23:27;28.50;99.90
20803;DHT22;10562;-33.856;151.182;2024-01-30T03:25:58;28.60;99.90
20803;DHT22;10562;-33.856;151.182;2024-01-30T03:28:29;28.60;99.90
20803;DHT22;10562;-33.856;151.182;2024-01-30T03:31:00;28.70;99.90
20803;DHT22;10562;-33.856;151.182;2024-01-30T03:33:31;28.80;99.90
20803;DHT22;10562;-33.856;151.182;2024-01-30T03:36:05;28.80;99.90
20803;DHT22;10562;-33.856;151.182;2024-01-30T03:38:38;28.70;99.90
20803;DHT22;10562;-33.856;151.182;2024-01-30T03:41:10;28.40;99.90
20803;DHT22;10562;-33.856;151.182;2024-01-30T03:43:41;28.10;99.90
20803;DHT22;10562;-33.856;151.182;2024-01-30T03:46:13;28.00;99.90
20803;DHT22;10562;-33.856;151.182;2024-01-30T03:48:44;27.90;99.90
20803;DHT22;10562;-33.856;151.182;2024-01-30T03:51:15;27.80;99.90
20803;DHT22;10562;-33.856;151.182;2024-01-30T03:53:49;27.90;99.90
20803;DHT22;10562;-33.856;151.182;2024-01-30T03:56:20;28.00;99.90
20803;DHT22;10562;-33.856;151.182;2024-01-30T03:58:52;28.10;99.90
20803;DHT22;10562;-33.856;151.182;2024-01-30T04:01:35;28.20;99.90
20803;DHT22;10562;-33.856;151.182;2024-01-30T04:04:06;28.40;99.90
20803;DHT22;10562;-33.856;151.182;2024-01-30T04:06:37;28.20;99.90
20803;DHT22;10562;-33.856;151.182;2024-01-30T04:09:10;27.80;99.90
20803;DHT22;10562;-33.856;151.182;2024-01-30T04:11:41;27.60;99.90
20803;DHT22;10562;-33.856;151.182;2024-01-30T04:14:12;27.50;99.90
20803;DHT22;10562;-33.856;151.182;2024-01-30T04:16:42;27.30;99.90
20803;DHT22;10562;-33.856;151.182;2024-01-30T04:19:13;27.10;99.90
20803;DHT22;10562;-33.856;151.182;2024-01-30T04:21:44;26.90;99.90
20803;DHT22;10562;-33.856;151.182;2024-01-30T04:24:17;26.80;99.90
20803;DHT22;10562;-33.856;151.182;2024-01-30T04:26:47;26.80;99.90
20803;DHT22;10562;-33.856;151.182;2024-01-30T04:29:18;26.80;99.90
20803;DHT22;10562;-33.856;151.182;2024-01-30T04:31:50;26.80;99.90
20803;DHT22;10562;-33.856;151.182;2024-01-30T04:34:21;26.90;99.90
20803;DHT22;10562;-33.856;151.182;2024-01-30T04:36:52;26.80;99.90
20803;DHT22;10562;-33.856;151.182;2024-01-30T04:39:24;27.10;99.90
20803;DHT22;10562;-33.856;151.182;2024-01-30T04:41:55;27.30;99.90
20803;DHT22;10562;-33.856;151.182;2024-01-30T04:44:26;27.60;99.90
20803;DHT22;10562;-33.856;151.182;2024-01-30T04:46:57;27.60;99.90
20803;DHT22;10562;-33.856;151.182;2024-01-30T04:49:29;27.70;99.90
20803;DHT22;10562;-33.856;151.182;2024-01-30T04:52:00;27.60;99.90
20803;DHT22;10562;-33.856;151.182;2024-01-30T04:54:32;27.60;99.90
20803;DHT22;10562;-33.856;151.182;2024-01-30T04:57:03;27.60;99.90
20803;DHT22;10562;-33.856;151.182;2024-01-30T04:59:37;27.90;99.90
20803;DHT22;10562;-33.856;151.182;2024-01-30T05:02:08;28.40;99.90
20803;DHT22;10562;-33.856;151.182;2024-01-30T05:04:39;29.00;99.90
20803;DHT22;10562;-33.856;151.182;2024-01-30T05:07:11;29.40;99.90
20803;DHT22;10562;-33.856;151.182;2024-01-30T05:09:44;29.50;99.90
20803;DHT22;10562;-33.856;151.182;2024-01-30T05:12:15;29.60;99.90
20803;DHT22;10562;-33.856;151.182;2024-01-30T05:14:45;29.70;99.90
20803;DHT22;10562;-33.856;151.182;2024-01-30T05:17:16;30.10;99.90
20803;DHT22;10562;-33.856;151.182;2024-01-30T05:19:47;30.50;99.90
20803;DHT22;10562;-33.856;151.182;2024-01-30T05:22:18;30.80;99.90
20803;DHT22;10562;-33.856;151.182;2024-01-30T05:24:50;31.10;99.90
20803;DHT22;10562;-33.856;151.182;2024-01-30T05:27:21;31.40;99.90
20803;DHT22;10562;-33.856;151.182;2024-01-30T05:29:52;31.50;99.90
20803;DHT22;10562;-33.856;151.182;2024-01-30T05:32:25;31.90;99.90
20803;DHT22;10562;-33.856;151.182;2024-01-30T05:34:56;32.30;99.90
20803;DHT22;10562;-33.856;151.182;2024-01-30T05:37:27;32.10;99.90
20803;DHT22;10562;-33.856;151.182;2024-01-30T05:39:59;32.50;99.90
20803;DHT22;10562;-33.856;151.182;2024-01-30T05:42:31;32.20;99.90
20803;DHT22;10562;-33.856;151.182;2024-01-30T05:45:02;31.90;99.90
20803;DHT22;10562;-33.856;151.182;2024-01-30T05:47:33;31.60;99.90
20803;DHT22;10562;-33.856;151.182;2024-01-30T05:50:04;31.40;99.90
20803;DHT22;10562;-33.856;151.182;2024-01-30T05:52:35;31.10;99.90
20803;DHT22;10562;-33.856;151.182;2024-01-30T05:55:08;31.00;99.90
20803;DHT22;10562;-33.856;151.182;2024-01-30T05:57:39;30.90;99.90
20803;DHT22;10562;-33.856;151.182;2024-01-30T06:00:10;30.40;99.90
20803;DHT22;10562;-33.856;151.182;2024-01-30T06:02:41;29.90;99.90
20803;DHT22;10562;-33.856;151.182;2024-01-30T06:05:30;29.60;99.90
20803;DHT22;10562;-33.856;151.182;2024-01-30T06:08:04;29.10;99.90
20803;DHT22;10562;-33.856;151.182;2024-01-30T06:10:37;28.90;99.90
20803;DHT22;10562;-33.856;151.182;2024-01-30T06:13:08;28.70;99.90
20803;DHT22;10562;-33.856;151.182;2024-01-30T06:15:38;28.50;99.90
20803;DHT22;10562;-33.856;151.182;2024-01-30T06:18:09;28.20;99.90
20803;DHT22;10562;-33.856;151.182;2024-01-30T06:20:41;28.00;99.90
20803;DHT22;10562;-33.856;151.182;2024-01-30T06:23:16;27.80;99.90
20803;DHT22;10562;-33.856;151.182;2024-01-30T06:25:49;27.60;99.90
20803;DHT22;10562;-33.856;151.182;2024-01-30T06:28:19;27.50;99.90
20803;DHT22;10562;-33.856;151.182;2024-01-30T06:30:50;27.30;99.90
20803;DHT22;10562;-33.856;151.182;2024-01-30T06:33:21;27.20;99.90
20803;DHT22;10562;-33.856;151.182;2024-01-30T06:35:52;27.20;99.90
20803;DHT22;10562;-33.856;151.182;2024-01-30T06:38:23;27.10;99.90
20803;DHT22;10562;-33.856;151.182;2024-01-30T06:40:56;27.10;99.90
20803;DHT22;10562;-33.856;151.182;2024-01-30T06:43:26;27.30;99.90
20803;DHT22;10562;-33.856;151.182;2024-01-30T06:45:57;27.20;99.90
20803;DHT22;10562;-33.856;151.182;2024-01-30T06:48:28;27.30;99.90
20803;DHT22;10562;-33.856;151.182;2024-01-30T06:50:59;27.20;99.90
20803;DHT22;10562;-33.856;151.182;2024-01-30T06:53:29;27.00;99.90
20803;DHT22;10562;-33.856;151.182;2024-01-30T06:56:02;26.90;99.90
20803;DHT22;10562;-33.856;151.182;2024-01-30T06:58:33;26.80;99.90
20803;DHT22;10562;-33.856;151.182;2024-01-30T07:01:04;26.70;99.90
20803;DHT22;10562;-33.856;151.182;2024-01-30T07:03:34;26.50;99.90
20803;DHT22;10562;-33.856;151.182;2024-01-30T07:06:05;26.40;99.90
20803;DHT22;10562;-33.856;151.182;2024-01-30T07:08:36;26.30;99.90
20803;DHT22;10562;-33.856;151.182;2024-01-30T07:11:09;26.30;99.90
20803;DHT22;10562;-33.856;151.182;2024-01-30T07:13:40;26.20;99.90
20803;DHT22;10562;-33.856;151.182;2024-01-30T07:16:11;26.10;99.90
20803;DHT22;10562;-33.856;151.182;2024-01-30T07:18:41;26.00;99.90
20803;DHT22;10562;-33.856;151.182;2024-01-30T07:21:12;25.90;99.90
20803;DHT22;10562;-33.856;151.182;2024-01-30T07:23:43;25.80;99.90
20803;DHT22;10562;-33.856;151.182;2024-01-30T07:26:16;25.60;99.90
20803;DHT22;10562;-33.856;151.182;2024-01-30T07:28:47;25.60;99.90
20803;DHT22;10562;-33.856;151.182;2024-01-30T07:31:18;25.50;99.90
20803;DHT22;10562;-33.856;151.182;2024-01-30T07:33:51;25.50;99.90
20803;DHT22;10562;-33.856;151.182;2024-01-30T07:36:22;25.50;99.90
20803;DHT22;10562;-33.856;151.182;2024-01-30T07:38:53;25.50;99.90
20803;DHT22;10562;-33.856;151.182;2024-01-30T07:41:26;25.50;99.90
20803;DHT22;10562;-33.856;151.182;2024-01-30T07:43:56;25.40;99.90
20803;DHT22;10562;-33.856;151.182;2024-01-30T07:46:27;25.40;99.90
20803;DHT22;10562;-33.856;151.182;2024-01-30T07:48:58;25.40;99.90
20803;DHT22;10562;-33.856;151.182;2024-01-30T07:51:29;25.40;99.90
20803;DHT22;10562;-33.856;151.182;2024-01-30T07:54:00;25.40;99.90
20803;DHT22;10562;-33.856;151.182;2024-01-30T07:56:33;25.40;99.90
20803;DHT22;10562;-33.856;151.182;2024-01-30T07:59:14;25.40;99.90
20803;DHT22;10562;-33.856;151.182;2024-01-30T08:02:07;25.40;99.90
20803;DHT22;10562;-33.856;151.182;2024-01-30T08:04:38;25.40;99.90
20803;DHT22;10562;-33.856;151.182;2024-01-30T08:07:08;25.40;99.90
20803;DHT22;10562;-33.856;151.182;2024-01-30T08:09:39;25.30;99.90
20803;DHT22;10562;-33.856;151.182;2024-01-30T08:12:12;25.20;99.90
20803;DHT22;10562;-33.856;151.182;2024-01-30T08:14:43;25.20;99.90
20803;DHT22;10562;-33.856;151.182;2024-01-30T08:17:13;25.20;99.90
20803;DHT22;10562;-33.856;151.182;2024-01-30T08:19:44;25.30;99.90
20803;DHT22;10562;-33.856;151.182;2024-01-30T08:22:15;25.20;99.90
20803;DHT22;10562;-33.856;151.182;2024-01-30T08:24:46;25.20;99.90
20803;DHT22;10562;-33.856;151.182;2024-01-30T08:27:18;25.10;99.90
20803;DHT22;10562;-33.856;151.182;2024-01-30T08:29:49;25.10;99.90
20803;DHT22;10562;-33.856;151.182;2024-01-30T08:32:20;25.00;99.90
20803;DHT22;10562;-33.856;151.182;2024-01-30T08:34:52;25.00;99.90
20803;DHT22;10562;-33.856;151.182;2024-01-30T08:37:22;25.00;99.90
20803;DHT22;10562;-33.856;151.182;2024-01-30T08:39:53;24.90;99.90
20803;DHT22;10562;-33.856;151.182;2024-01-30T08:42:26;24.90;99.90
20803;DHT22;10562;-33.856;151.182;2024-01-30T08:44:57;24.80;99.90
20803;DHT22;10562;-33.856;151.182;2024-01-30T08:47:28;24.70;99.90
20803;DHT22;10562;-33.856;151.182;2024-01-30T08:49:58;24.50;99.90
20803;DHT22;10562;-33.856;151.182;2024-01-30T08:52:29;24.50;99.90
20803;DHT22;10562;-33.856;151.182;2024-01-30T08:55:00;24.40;99.90
20803;DHT22;10562;-33.856;151.182;2024-01-30T08:57:34;24.30;99.90
20803;DHT22;10562;-33.856;151.182;2024-01-30T09:00:06;24.20;99.90
20803;DHT22;10562;-33.856;151.182;2024-01-30T09:02:37;24.10;99.90
20803;DHT22;10562;-33.856;151.182;2024-01-30T09:05:08;24.00;99.90
20803;DHT22;10562;-33.856;151.182;2024-01-30T09:07:39;23.90;99.90
20803;DHT22;10562;-33.856;151.182;2024-01-30T09:10:11;23.80;99.90
20803;DHT22;10562;-33.856;151.182;2024-01-30T09:12:43;23.80;99.90
20803;DHT22;10562;-33.856;151.182;2024-01-30T09:15:14;23.70;99.90
20803;DHT22;10562;-33.856;151.182;2024-01-30T09:17:46;23.70;99.90
20803;DHT22;10562;-33.856;151.182;2024-01-30T09:20:17;23.70;99.90
20803;DHT22;10562;-33.856;151.182;2024-01-30T09:22:50;23.70;99.90
20803;DHT22;10562;-33.856;151.182;2024-01-30T09:25:25;23.70;99.90
20803;DHT22;10562;-33.856;151.182;2024-01-30T09:27:57;23.80;99.90
20803;DHT22;10562;-33.856;151.182;2024-01-30T09:30:28;23.80;99.90
20803;DHT22;10562;-33.856;151.182;2024-01-30T09:33:01;23.80;99.90
20803;DHT22;10562;-33.856;151.182;2024-01-30T09:35:33;23.80;99.90
20803;DHT22;10562;-33.856;151.182;2024-01-30T09:38:07;23.90;99.90
20803;DHT22;10562;-33.856;151.182;2024-01-30T09:40:38;23.90;99.90
20803;DHT22;10562;-33.856;151.182;2024-01-30T09:43:13;23.90;99.90
20803;DHT22;10562;-33.856;151.182;2024-01-30T09:45:51;23.90;99.90
20803;DHT22;10562;-33.856;151.182;2024-01-30T09:48:37;24.00;99.90
20803;DHT22;10562;-33.856;151.182;2024-01-30T09:51:10;24.00;99.90
20803;DHT22;10562;-33.856;151.182;2024-01-30T09:53:43;24.10;99.90
20803;DHT22;10562;-33.856;151.182;2024-01-30T09:56:15;24.10;99.90
20803;DHT22;10562;-33.856;151.182;2024-01-30T09:58:50;24.10;99.90
20803;DHT22;10562;-33.856;151.182;2024-01-30T10:01:23;24.10;99.90
20803;DHT22;10562;-33.856;151.182;2024-01-30T10:03:57;24.10;99.90
20803;DHT22;10562;-33.856;151.182;2024-01-30T10:06:29;24.10;99.90
20803;DHT22;10562;-33.856;151.182;2024-01-30T10:09:00;24.20;99.90
20803;DHT22;10562;-33.856;151.182;2024-01-30T10:11:32;24.20;99.90
20803;DHT22;10562;-33.856;151.182;2024-01-30T10:14:17;24.20;99.90
20803;DHT22;10562;-33.856;151.182;2024-01-30T10:16:54;24.20;99.90
20803;DHT22;10562;-33.856;151.182;2024-01-30T10:19:26;24.10;99.90
20803;DHT22;10562;-33.856;151.182;2024-01-30T10:22:01;24.20;99.90
20803;DHT22;10562;-33.856;151.182;2024-01-30T10:24:40;24.10;99.90
20803;DHT22;10562;-33.856;151.182;2024-01-30T10:27:13;24.00;99.90
20803;DHT22;10562;-33.856;151.182;2024-01-30T10:29:49;24.00;99.90
20803;DHT22;10562;-33.856;151.182;2024-01-30T10:32:22;24.00;99.90
20803;DHT22;10562;-33.856;151.182;2024-01-30T10:34:58;24.00;99.90
20803;DHT22;10562;-33.856;151.182;2024-01-30T10:37:31;24.00;99.90
20803;DHT22;10562;-33.856;151.182;2024-01-30T10:40:04;24.00;99.90
20803;DHT22;10562;-33.856;151.182;2024-01-30T10:42:37;24.00;99.90
20803;DHT22;10562;-33.856;151.182;2024-01-30T10:45:14;24.00;99.90
20803;DHT22;10562;-33.856;151.182;2024-01-30T10:47:48;24.00;99.90
20803;DHT22;10562;-33.856;151.182;2024-01-30T10:50:21;24.00;99.90
20803;DHT22;10562;-33.856;151.182;2024-01-30T10:52:56;23.90;99.90
20803;DHT22;10562;-33.856;151.182;2024-01-30T10:55:30;23.90;99.90
20803;DHT22;10562;-33.856;151.182;2024-01-30T10:58:07;23.90;99.90
20803;DHT22;10562;-33.856;151.182;2024-01-30T11:00:41;23.80;99.90
20803;DHT22;10562;-33.856;151.182;2024-01-30T11:03:13;23.80;99.90
20803;DHT22;10562;-33.856;151.182;2024-01-30T11:05:48;23.70;99.90
20803;DHT22;10562;-33.856;151.182;2024-01-30T11:08:25;23.60;99.90
20803;DHT22;10562;-33.856;151.182;2024-01-30T11:10:57;23.60;99.90
20803;DHT22;10562;-33.856;151.182;2024-01-30T11:13:31;23.60;99.90
20803;DHT22;10562;-33.856;151.182;2024-01-30T11:16:06;23.60;99.90
20803;DHT22;10562;-33.856;151.182;2024-01-30T11:18:37;23.50;99.90
20803;DHT22;10562;-33.856;151.182;2024-01-30T11:21:08;23.50;99.90
20803;DHT22;10562;-33.856;151.182;2024-01-30T11:23:39;23.50;99.90
20803;DHT22;10562;-33.856;151.182;2024-01-30T11:26:12;23.50;99.90
20803;DHT22;10562;-33.856;151.182;2024-01-30T11:28:42;23.50;99.90
20803;DHT22;10562;-33.856;151.182;2024-01-30T11:31:20;23.50;99.90
20803;DHT22;10562;-33.856;151.182;2024-01-30T11:33:54;23.60;99.90
20803;DHT22;10562;-33.856;151.182;2024-01-30T11:36:26;23.60;99.90
20803;DHT22;10562;-33.856;151.182;2024-01-30T11:38:58;23.60;99.90
20803;DHT22;10562;-33.856;151.182;2024-01-30T11:41:29;23.70;99.90
20803;DHT22;10562;-33.856;151.182;2024-01-30T11:44:03;23.60;99.90
20803;DHT22;10562;-33.856;151.182;2024-01-30T11:46:36;23.70;99.90
20803;DHT22;10562;-33.856;151.182;2024-01-30T11:49:07;23.70;99.90
20803;DHT22;10562;-33.856;151.182;2024-01-30T11:51:37;23.70;99.90
20803;DHT22;10562;-33.856;151.182;2024-01-30T11:54:09;23.70;99.90
20803;DHT22;10562;-33.856;151.182;2024-01-30T11:56:39;23.70;99.90
20803;DHT22;10562;-33.856;151.182;2024-01-30T11:59:10;23.70;99.90
20803;DHT22;10562;-33.856;151.182;2024-01-30T12:01:43;23.70;99.90
20803;DHT22;10562;-33.856;151.182;2024-01-30T12:04:15;23.80;99.90
20803;DHT22;10562;-33.856;151.182;2024-01-30T12:06:45;23.80;99.90
20803;DHT22;10562;-33.856;151.182;2024-01-30T12:09:21;23.80;99.90
20803;DHT22;10562;-33.856;151.182;2024-01-30T12:11:51;23.80;99.90
20803;DHT22;10562;-33.856;151.182;2024-01-30T12:14:23;23.80;99.90
20803;DHT22;10562;-33.856;151.182;2024-01-30T12:16:56;23.80;99.90
20803;DHT22;10562;-33.856;151.182;2024-01-30T12:19:27;23.90;99.90
20803;DHT22;10562;-33.856;151.182;2024-01-30T12:21:58;23.90;99.90
20803;DHT22;10562;-33.856;151.182;2024-01-30T12:24:29;23.90;99.90
20803;DHT22;10562;-33.856;151.182;2024-01-30T12:27:00;23.90;99.90
20803;DHT22;10562;-33.856;151.182;2024-01-30T12:29:33;23.90;99.90
20803;DHT22;10562;-33.856;151.182;2024-01-30T12:32:07;23.90;99.90
20803;DHT22;10562;-33.856;151.182;2024-01-30T12:34:42;24.00;99.90
20803;DHT22;10562;-33.856;151.182;2024-01-30T12:37:13;24.00;99.90
20803;DHT22;10562;-33.856;151.182;2024-01-30T12:39:47;24.00;99.90
20803;DHT22;10562;-33.856;151.182;2024-01-30T12:42:18;23.90;99.90
20803;DHT22;10562;-33.856;151.182;2024-01-30T12:44:50;23.90;99.90
20803;DHT22;10562;-33.856;151.182;2024-01-30T12:47:24;23.80;99.90
20803;DHT22;10562;-33.856;151.182;2024-01-30T12:49:55;23.80;99.90
20803;DHT22;10562;-33.856;151.182;2024-01-30T12:52:26;23.90;99.90
20803;DHT22;10562;-33.856;151.182;2024-01-30T12:54:57;23.80;99.90
20803;DHT22;10562;-33.856;151.182;2024-01-30T12:57:28;23.80;99.90
20803;DHT22;10562;-33.856;151.182;2024-01-30T12:59:59;23.80;99.90
20803;DHT22;10562;-33.856;151.182;2024-01-30T13:02:32;23.80;99.90
20803;DHT22;10562;-33.856;151.182;2024-01-30T13:05:04;23.90;99.90
20803;DHT22;10562;-33.856;151.182;2024-01-30T13:07:35;23.80;99.90
20803;DHT22;10562;-33.856;151.182;2024-01-30T13:10:06;23.90;99.90
20803;DHT22;10562;-33.856;151.182;2024-01-30T13:12:38;23.90;99.90
20803;DHT22;10562;-33.856;151.182;2024-01-30T13:15:10;23.90;99.90
20803;DHT22;10562;-33.856;151.182;2024-01-30T13:17:43;23.80;99.90
20803;DHT22;10562;-33.856;151.182;2024-01-30T13:20:15;23.80;99.90
20803;DHT22;10562;-33.856;151.182;2024-01-30T13:22:48;23.80;99.90
20803;DHT22;10562;-33.856;151.182;2024-01-30T13:25:19;23.80;99.90
20803;DHT22;10562;-33.856;151.182;2024-01-30T13:27:50;23.70;99.90
20803;DHT22;10562;-33.856;151.182;2024-01-30T13:30:21;23.70;99.90
20803;DHT22;10562;-33.856;151.182;2024-01-30T13:32:53;23.60;99.90
20803;DHT22;10562;-33.856;151.182;2024-01-30T13:35:24;23.60;99.90
20803;DHT22;10562;-33.856;151.182;2024-01-30T13:37:55;23.50;99.90
20803;DHT22;10562;-33.856;151.182;2024-01-30T13:40:26;23.60;99.90
20803;DHT22;10562;-33.856;151.182;2024-01-30T13:42:56;23.60;99.90
20803;DHT22;10562;-33.856;151.182;2024-01-30T13:45:27;23.70;99.90
20803;DHT22;10562;-33.856;151.182;2024-01-30T13:48:00;23.70;99.90
20803;DHT22;10562;-33.856;151.182;2024-01-30T13:50:31;23.60;99.90
20803;DHT22;10562;-33.856;151.182;2024-01-30T13:53:03;23.60;99.90
20803;DHT22;10562;-33.856;151.182;2024-01-30T13:55:34;23.60;99.90
20803;DHT22;10562;-33.856;151.182;2024-01-30T13:58:05;23.60;99.90
20803;DHT22;10562;-33.856;151.182;2024-01-30T14:00:37;23.60;99.90
20803;DHT22;10562;-33.856;151.182;2024-01-30T14:03:10;23.60;99.90
20803;DHT22;10562;-33.856;151.182;2024-01-30T14:05:41;23.60;99.90
20803;DHT22;10562;-33.856;151.182;2024-01-30T14:08:12;23.60;99.90
20803;DHT22;10562;-33.856;151.182;2024-01-30T14:10:43;23.70;99.90
20803;DHT22;10562;-33.856;151.182;2024-01-30T14:13:14;23.70;99.90
20803;DHT22;10562;-33.856;151.182;2024-01-30T14:15:47;23.60;99.90
20803;DHT22;10562;-33.856;151.182;2024-01-30T14:18:20;23.60;99.90
20803;DHT22;10562;-33.856;151.182;2024-01-30T14:20:51;23.60;99.90
20803;DHT22;10562;-33.856;151.182;2024-01-30T14:23:22;23.50;99.90
20803;DHT22;10562;-33.856;151.182;2024-01-30T14:25:52;23.50;99.90
20803;DHT22;10562;-33.856;151.182;2024-01-30T14:28:23;23.50;99.90
20803;DHT22;10562;-33.856;151.182;2024-01-30T14:30:54;23.40;99.90
20803;DHT22;10562;-33.856;151.182;2024-01-30T14:33:26;23.40;99.90
20803;DHT22;10562;-33.856;151.182;2024-01-30T14:35:57;23.40;99.90
20803;DHT22;10562;-33.856;151.182;2024-01-30T14:38:28;23.30;99.90
20803;DHT22;10562;-33.856;151.182;2024-01-30T14:40:59;23.30;99.90
20803;DHT22;10562;-33.856;151.182;2024-01-30T14:43:30;23.20;99.90
20803;DHT22;10562;-33.856;151.182;2024-01-30T14:46:00;23.20;99.90
20803;DHT22;10562;-33.856;151.182;2024-01-30T14:48:36;23.20;99.90
20803;DHT22;10562;-33.856;151.182;2024-01-30T14:51:07;23.20;99.90
20803;DHT22;10562;-33.856;151.182;2024-01-30T14:53:37;23.20;99.90
20803;DHT22;10562;-33.856;151.182;2024-01-30T14:56:08;23.10;99.90
20803;DHT22;10562;-33.856;151.182;2024-01-30T14:58:39;23.10;99.90
20803;DHT22;10562;-33.856;151.182;2024-01-30T15:01:11;23.10;99.90
20803;DHT22;10562;-33.856;151.182;2024-01-30T15:03:43;23.00;99.90
20803;DHT22;10562;-33.856;151.182;2024-01-30T15:06:14;23.00;99.90
20803;DHT22;10562;-33.856;151.182;2024-01-30T15:08:45;23.00;99.90
20803;DHT22;10562;-33.856;151.182;2024-01-30T15:11:16;22.90;99.90
20803;DHT22;10562;-33.856;151.182;2024-01-30T15:13:47;22.90;99.90
20803;DHT22;10562;-33.856;151.182;2024-01-30T15:16:18;22.80;99.90